This is the latest recevied weather packets stored in our database for station/object KF4WSW-13. If no packets are shown the sender has not sent any weather packets the latest 10 day(s).
| Time | Temp. | Humidity | Pressure | Rain* | Wind** | Luminosity | Snow |
|---|---|---|---|---|---|---|---|
| 1777996169 | 27.78° C | 61% | 1014.7 hPa | 0 mm | - | 882 W/m² | - |
| 1777995866 | 26.67° C | 62% | 1014.5 hPa | 0 mm | - | 732 W/m² | - |
| 1777995562 | 25.56° C | 68% | 1014.5 hPa | 0 mm | - | 860 W/m² | - |
| 1777995260 | 25.56° C | 67% | 1014.5 hPa | 0 mm | - | 332 W/m² | - |
| 1777994956 | 26.11° C | 67% | 1014.3 hPa | 0 mm | - | 331 W/m² | - |
| 1777994654 | 26.11° C | 64% | 1014.5 hPa | 0 mm | - | 289 W/m² | - |
| 1777994353 | 26.67° C | 64% | 1014.6 hPa | 0 mm | - | 399 W/m² | - |
| 1777994050 | 26.67° C | 62% | 1014.5 hPa | 0 mm | - | 761 W/m² | - |
| 1777993747 | 25.56° C | 67% | 1014.5 hPa | 0 mm | - | 661 W/m² | - |
| 1777993445 | 25° C | 71% | 1014.7 hPa | 0 mm | - | 302 W/m² | - |
| 1777993144 | 25° C | 69% | 1014.4 hPa | 0 mm | - | 526 W/m² | - |
| 1777992843 | 25.56° C | 69% | 1014.6 hPa | 0 mm | - | 246 W/m² | - |
| 1777992540 | 25.56° C | 67% | 1014.5 hPa | 0 mm | - | 740 W/m² | - |
| 1777992238 | 25.56° C | 69% | 1014.5 hPa | 0 mm | - | 573 W/m² | - |
| 1777991935 | 25° C | 69% | 1014.5 hPa | 0 mm | - | 301 W/m² | - |
| 1777991633 | 25° C | 68% | 1014.6 hPa | 0 mm | - | 573 W/m² | - |
| 1777991330 | 24.44° C | 69% | 1014.5 hPa | 0 mm | - | 314 W/m² | - |
| 1777991027 | 25° C | 68% | 1014.5 hPa | 0 mm | - | 585 W/m² | - |
| 1777990724 | 25° C | 69% | 1014.4 hPa | 0 mm | - | 554 W/m² | - |
| 1777990421 | 24.44° C | 71% | 1014.4 hPa | 0 mm | - | 526 W/m² | - |
| 1777989814 | 23.89° C | 72% | 1014.3 hPa | 0 mm | - | 428 W/m² | - |
| 1777989512 | 23.89° C | 71% | 1014.2 hPa | 0 mm | - | 491 W/m² | - |
| 1777989208 | 24.44° C | 71% | 1014.1 hPa | 0 mm | - | 430 W/m² | - |
| 1777988904 | 23.89° C | 73% | 1014.1 hPa | 0 mm | - | 459 W/m² | - |
| 1777988601 | 23.89° C | 74% | 1013.9 hPa | 0 mm | - | 456 W/m² | - |
* Rain latest hour (hover to see other rain measurements)
** Current wind speed in m/s (hover to see current wind gust speed)